createdAt,value
2018-01-08T00:00:50.451Z,8.13
2018-01-08T00:03:18.388Z,6.77
2018-01-08T00:05:50.726Z,8.40
2018-01-08T00:08:18.999Z,7.90
2018-01-08T00:10:49.575Z,7.93
2018-01-08T00:13:17.881Z,8.60
2018-01-08T00:15:46.667Z,9.17
2018-01-08T00:18:15.253Z,9.73
2018-01-08T00:20:44.778Z,10.05
2018-01-08T00:23:13.216Z,10.40
2018-01-08T00:25:41.297Z,10.27
2018-01-08T00:28:10.012Z,10.60
2018-01-08T00:30:38.094Z,12.20
2018-01-08T00:33:06.827Z,13.63
2018-01-08T00:35:34.892Z,15.03
2018-01-08T00:38:02.914Z,14.57
2018-01-08T00:40:31.020Z,12.27
2018-01-08T00:42:59.194Z,11.57
2018-01-08T00:45:27.350Z,10.73
2018-01-08T00:47:55.351Z,12.00
2018-01-08T00:50:41.056Z,11.13
2018-01-08T00:53:22.525Z,12.10
2018-01-08T00:55:51.562Z,12.43
2018-01-08T00:58:20.426Z,12.63
2018-01-08T01:00:48.480Z,10.73
2018-01-08T01:03:38.994Z,15.10
2018-01-08T01:09:44.437Z,15.37
2018-01-08T01:12:13.427Z,11.60
2018-01-08T01:14:42.852Z,11.73
2018-01-08T01:17:14.599Z,11.10
2018-01-08T01:19:42.628Z,10.77
2018-01-08T01:22:10.490Z,12.23
2018-01-08T01:24:38.514Z,12.40
2018-01-08T01:27:07.710Z,14.73
2018-01-08T01:29:35.574Z,12.83
2018-01-08T01:32:03.640Z,13.23
2018-01-08T01:34:32.464Z,13.77
2018-01-08T01:37:02.256Z,12.13
2018-01-08T01:41:58.155Z,15.83
2018-01-08T01:44:26.173Z,14.37
2018-01-08T01:46:54.813Z,14.20
2018-01-08T01:49:23.242Z,13.20
2018-01-08T01:51:51.190Z,17.07
2018-01-08T01:54:19.538Z,19.10
2018-01-08T01:56:48.302Z,16.60
2018-01-08T01:59:17.203Z,18.70
2018-01-08T02:01:47.732Z,18.47
2018-01-08T02:04:16.524Z,15.87
2018-01-08T02:06:44.935Z,16.87
2018-01-08T02:09:13.040Z,16.80
2018-01-08T02:11:41.936Z,14.77
2018-01-08T02:14:11.212Z,18.00
2018-01-08T02:16:39.313Z,15.90
2018-01-08T02:19:07.477Z,17.30
2018-01-08T02:21:38.074Z,18.10
2018-01-08T02:24:07.723Z,17.07
2018-01-08T02:26:37.173Z,19.80
2018-01-08T02:29:09.434Z,17.13
2018-01-08T02:31:38.334Z,21.03
2018-01-08T02:34:07.267Z,18.03
2018-01-08T02:36:35.383Z,19.90
2018-01-08T02:39:03.494Z,20.43
2018-01-08T02:41:31.596Z,19.02
2018-01-08T02:43:59.847Z,19.50
2018-01-08T02:46:33.597Z,17.90
2018-01-08T02:49:01.899Z,18.00
2018-01-08T02:51:30.112Z,16.30
2018-01-08T02:54:01.395Z,17.80
2018-01-08T02:56:31.914Z,18.90
2018-01-08T02:59:00.890Z,19.80
2018-01-08T03:01:28.890Z,19.95
2018-01-08T03:03:56.797Z,20.58
2018-01-08T03:06:26.657Z,19.53
2018-01-08T03:08:54.790Z,19.53
2018-01-08T03:11:25.648Z,19.13
2018-01-08T03:13:54.096Z,18.73
2018-01-08T03:16:22.822Z,19.17
2018-01-08T03:18:51.003Z,19.65
2018-01-08T03:21:19.234Z,19.62
2018-01-08T03:23:48.096Z,18.37
2018-01-08T03:26:16.708Z,19.70
2018-01-08T03:28:44.817Z,20.83
2018-01-08T03:31:14.923Z,20.02
2018-01-08T03:33:54.166Z,20.83
2018-01-08T03:39:20.771Z,19.87
2018-01-08T03:41:49.443Z,19.83
2018-01-08T03:44:21.473Z,19.60
2018-01-08T03:46:50.293Z,18.50
2018-01-08T03:49:28.615Z,19.33
2018-01-08T03:51:56.846Z,19.08
2018-01-08T03:54:25.485Z,19.48
2018-01-08T03:56:53.733Z,17.67
2018-01-08T03:59:21.837Z,20.20
2018-01-08T04:01:49.843Z,17.60
2018-01-08T04:04:17.981Z,22.10
2018-01-08T04:06:46.085Z,20.23
2018-01-08T04:09:14.013Z,18.60
2018-01-08T04:11:42.122Z,19.53
2018-01-08T04:14:10.834Z,17.83
2018-01-08T04:16:38.981Z,19.95
2018-01-08T04:19:07.074Z,18.98
2018-01-08T04:21:36.069Z,18.63
2018-01-08T04:26:48.895Z,19.05
2018-01-08T04:29:17.609Z,17.05
2018-01-08T04:31:46.300Z,19.57
2018-01-08T04:34:14.383Z,19.17
2018-01-08T04:36:42.393Z,17.85
2018-01-08T04:39:10.927Z,19.70
2018-01-08T04:41:39.604Z,19.48
2018-01-08T04:44:08.480Z,18.50
2018-01-08T04:46:39.469Z,21.12
2018-01-08T04:49:07.699Z,19.92
2018-01-08T04:51:35.950Z,19.52
2018-01-08T04:54:04.302Z,18.42
2018-01-08T04:56:33.727Z,19.12
2018-01-08T04:59:01.986Z,19.77
2018-01-08T05:01:29.964Z,19.10
2018-01-08T05:03:58.216Z,19.45
2018-01-08T05:06:26.636Z,18.10
2018-01-08T05:08:54.670Z,21.67
2018-01-08T05:11:22.843Z,18.80
2018-01-08T05:13:51.762Z,20.67
2018-01-08T05:16:19.954Z,18.37
2018-01-08T05:18:48.132Z,19.48
2018-01-08T05:21:16.262Z,19.08
2018-01-08T05:23:45.110Z,18.92
2018-01-08T05:26:13.537Z,21.13
2018-01-08T05:28:42.146Z,17.70
2018-01-08T05:31:12.629Z,18.98
2018-01-08T05:33:40.746Z,19.80
2018-01-08T05:36:12.684Z,20.13
2018-01-08T05:38:40.852Z,22.13
2018-01-08T05:41:09.799Z,16.80
2018-01-08T05:43:39.118Z,19.93
2018-01-08T05:46:08.258Z,19.60
2018-01-08T05:48:36.365Z,19.65
2018-01-08T05:51:05.358Z,16.07
2018-01-08T05:53:33.860Z,19.48
2018-01-08T05:56:04.316Z,19.37
2018-01-08T05:58:32.247Z,19.43
2018-01-08T06:01:00.234Z,19.65
2018-01-08T06:03:29.371Z,18.02
2018-01-08T06:05:57.412Z,21.50
2018-01-08T06:08:25.411Z,20.42
2018-01-08T06:10:53.362Z,19.80
2018-01-08T06:13:21.682Z,21.30
2018-01-08T06:15:51.785Z,19.70
2018-01-08T06:18:19.814Z,18.53
2018-01-08T06:20:48.635Z,19.52
2018-01-08T06:23:19.524Z,19.90
2018-01-08T06:25:57.338Z,18.97
2018-01-08T06:28:28.400Z,18.05
2018-01-08T06:30:56.805Z,17.93
2018-01-08T06:33:24.843Z,19.50
2018-01-08T06:36:03.268Z,17.57
2018-01-08T06:38:33.859Z,20.17
2018-01-08T06:41:02.041Z,16.77
2018-01-08T06:43:36.999Z,19.23
2018-01-08T06:46:08.653Z,18.63
2018-01-08T06:48:55.940Z,20.43
2018-01-08T06:51:23.935Z,20.83
2018-01-08T06:53:52.527Z,19.73
2018-01-08T06:56:33.599Z,21.00
2018-01-08T06:59:02.418Z,19.67
2018-01-08T07:01:32.014Z,18.60
2018-01-08T07:05:10.832Z,19.90
2018-01-08T07:07:39.777Z,18.97
2018-01-08T07:10:08.321Z,21.27
2018-01-08T07:12:41.494Z,21.00
2018-01-08T07:15:14.574Z,18.73
2018-01-08T07:17:43.741Z,20.33
2018-01-08T07:20:50.401Z,20.37
2018-01-08T07:23:19.524Z,19.23
2018-01-08T07:25:48.094Z,19.35
2018-01-08T07:28:16.272Z,20.50
2018-01-08T07:30:44.447Z,20.00
2018-01-08T07:33:12.614Z,21.50
2018-01-08T07:35:50.263Z,19.55
2018-01-08T07:38:18.932Z,22.23
2018-01-08T07:41:08.070Z,20.50
2018-01-08T07:43:52.974Z,21.33
2018-01-08T07:46:29.825Z,16.70
2018-01-08T07:51:36.020Z,22.80
2018-01-08T07:54:03.901Z,21.83
2018-01-08T07:56:32.353Z,18.67
2018-01-08T07:59:00.309Z,22.07
2018-01-08T08:01:31.898Z,20.90
2018-01-08T08:04:05.580Z,21.63
2018-01-08T08:06:33.612Z,21.53
2018-01-08T08:09:01.779Z,19.30
2018-01-08T08:11:32.865Z,19.00
2018-01-08T08:14:38.312Z,20.33
2018-01-08T08:17:08.099Z,23.33
2018-01-08T08:19:37.003Z,21.27
2018-01-08T08:22:12.878Z,21.35
2018-01-08T08:24:41.297Z,23.67
2018-01-08T08:27:10.561Z,21.73
2018-01-08T08:29:39.318Z,19.43
2018-01-08T08:32:32.327Z,20.15
2018-01-08T08:35:01.560Z,19.97
2018-01-08T08:37:46.887Z,22.47
2018-01-08T08:40:20.777Z,21.47
2018-01-08T08:43:08.902Z,20.93
2018-01-08T08:45:38.174Z,23.53
2018-01-08T08:48:07.143Z,23.80
2018-01-08T08:50:35.775Z,22.90
2018-01-08T08:53:03.869Z,22.80
2018-01-08T08:55:35.470Z,23.23
2018-01-08T08:58:05.904Z,24.70
2018-01-08T09:00:33.828Z,20.40
2018-01-08T09:03:03.300Z,21.77
2018-01-08T09:05:31.914Z,22.10
2018-01-08T09:08:02.827Z,24.70
2018-01-08T09:10:33.187Z,27.73
2018-01-08T09:13:01.746Z,27.47
2018-01-08T09:15:29.672Z,24.20
2018-01-08T09:17:58.134Z,22.13
2018-01-08T09:20:27.096Z,20.07
2018-01-08T09:22:58.270Z,19.77
2018-01-08T09:25:26.450Z,20.17
2018-01-08T09:27:54.599Z,20.53
2018-01-08T09:30:22.640Z,23.03
2018-01-08T09:33:01.718Z,25.90
2018-01-08T09:35:35.745Z,24.83
2018-01-08T09:38:05.380Z,17.60
2018-01-08T09:40:33.556Z,17.17
2018-01-08T09:43:02.159Z,51.83
2018-01-08T09:45:32.309Z,29.43
2018-01-08T09:48:02.119Z,21.57
2018-01-08T09:50:34.540Z,22.77
2018-01-08T09:53:02.798Z,18.57
2018-01-08T09:55:40.432Z,20.67
2018-01-08T09:58:13.028Z,23.67
2018-01-08T10:00:45.484Z,23.37
2018-01-08T10:03:25.541Z,35.17
2018-01-08T10:06:04.716Z,23.63
2018-01-08T10:18:25.265Z,22.70
2018-01-08T10:21:24.894Z,22.27
2018-01-08T10:23:52.950Z,24.73
2018-01-08T10:26:31.700Z,24.03
2018-01-08T10:29:00.854Z,27.77
2018-01-08T10:31:29.043Z,32.30
2018-01-08T10:34:04.815Z,30.03
2018-01-08T10:36:33.772Z,24.90
2018-01-08T10:39:02.089Z,40.87
2018-01-08T10:41:36.512Z,28.97
2018-01-08T10:44:13.465Z,23.50
2018-01-08T10:46:47.995Z,22.30
2018-01-08T10:49:23.051Z,18.33
2018-01-08T10:52:00.294Z,19.97
2018-01-08T10:57:09.834Z,21.43
2018-01-08T10:59:39.545Z,29.50
2018-01-08T11:02:12.614Z,28.90
2018-01-08T11:04:40.699Z,37.10
2018-01-08T11:07:08.623Z,34.07
2018-01-08T11:09:39.091Z,37.77
2018-01-08T11:12:10.004Z,24.80
2018-01-08T11:14:47.179Z,51.40
2018-01-08T11:17:18.458Z,40.50
2018-01-08T11:19:50.310Z,39.40
2018-01-08T11:22:18.836Z,26.93
2018-01-08T11:24:46.862Z,24.17
2018-01-08T11:27:28.616Z,42.47
2018-01-08T11:29:57.507Z,22.67
2018-01-08T11:32:27.144Z,36.83
2018-01-08T11:34:55.245Z,25.77
2018-01-08T11:41:02.470Z,25.53
2018-01-08T11:43:31.770Z,26.13
2018-01-08T11:46:27.693Z,25.73
2018-01-08T11:54:11.046Z,25.07
2018-01-08T11:56:42.874Z,26.37
2018-01-08T11:59:17.942Z,39.22
2018-01-08T12:01:56.851Z,30.20
2018-01-08T12:04:35.793Z,25.77
2018-01-08T12:07:36.084Z,25.23
2018-01-08T12:10:06.623Z,31.47
2018-01-08T12:13:11.361Z,20.97
2018-01-08T12:15:40.340Z,23.60
2018-01-08T12:18:10.144Z,23.73
2018-01-08T12:20:39.524Z,30.10
2018-01-08T12:23:10.004Z,26.40
2018-01-08T12:25:43.713Z,24.83
2018-01-08T12:28:16.093Z,29.50
2018-01-08T12:30:58.808Z,24.30
2018-01-08T12:33:36.199Z,29.70
2018-01-08T12:36:23.623Z,28.00
2018-01-08T12:38:53.177Z,25.30
2018-01-08T12:41:22.715Z,27.33
2018-01-08T12:43:59.721Z,22.17
2018-01-08T12:46:29.823Z,25.20
2018-01-08T12:49:03.061Z,24.83
2018-01-08T12:51:47.019Z,25.63
2018-01-08T12:54:18.288Z,25.30
2018-01-08T12:56:55.778Z,29.10
2018-01-08T13:02:46.839Z,26.47
2018-01-08T13:05:15.659Z,23.57
2018-01-08T13:07:45.611Z,25.37
2018-01-08T13:10:17.466Z,25.73
2018-01-08T13:12:45.499Z,25.27
2018-01-08T13:15:46.551Z,31.83
2018-01-08T13:18:18.634Z,24.70
2018-01-08T13:24:16.040Z,25.57
2018-01-08T13:26:45.575Z,25.27
2018-01-08T13:29:16.725Z,25.90
2018-01-08T13:32:05.235Z,24.80
2018-01-08T13:34:36.341Z,25.30
2018-01-08T13:37:04.916Z,26.23
2018-01-08T13:39:37.215Z,33.20
2018-01-08T13:42:07.328Z,23.97
2018-01-08T13:44:36.608Z,23.50
2018-01-08T13:50:26.839Z,25.43
2018-01-08T13:52:56.016Z,26.90
2018-01-08T13:59:31.605Z,22.70
2018-01-08T14:02:08.533Z,21.37
2018-01-08T14:04:38.074Z,23.73
2018-01-08T14:07:09.690Z,21.97
2018-01-08T14:09:43.547Z,25.20
2018-01-08T14:12:15.349Z,25.17
2018-01-08T14:14:53.594Z,26.93
2018-01-08T14:17:22.792Z,22.93
2018-01-08T14:20:26.654Z,25.77
2018-01-08T14:23:03.150Z,25.60
2018-01-08T14:25:46.733Z,27.27
2018-01-08T14:28:24.250Z,23.73
2018-01-08T14:30:55.975Z,24.03
2018-01-08T14:33:28.032Z,29.30
2018-01-08T14:35:58.727Z,23.37
2018-01-08T14:42:06.894Z,24.87
2018-01-08T14:44:38.254Z,24.30
2018-01-08T14:47:15.885Z,23.47
2018-01-08T14:50:20.896Z,26.50
2018-01-08T14:54:12.692Z,25.43
2018-01-08T14:57:06.437Z,22.53
2018-01-08T14:59:38.527Z,27.13
2018-01-08T15:02:12.094Z,24.23
2018-01-08T15:04:45.367Z,22.50
2018-01-08T15:07:35.174Z,21.83
2018-01-08T15:10:05.817Z,24.23
2018-01-08T15:12:35.352Z,23.83
2018-01-08T15:15:05.898Z,25.93
2018-01-08T15:17:34.286Z,36.97
2018-01-08T15:20:05.667Z,27.20
2018-01-08T15:22:35.360Z,26.43
2018-01-08T15:25:21.989Z,27.47
2018-01-08T15:27:58.284Z,25.87
2018-01-08T15:31:00.976Z,27.53
2018-01-08T15:33:36.672Z,26.23
2018-01-08T15:36:07.130Z,26.53
2018-01-08T15:38:40.324Z,22.60
2018-01-08T15:41:14.501Z,25.60
2018-01-08T15:43:43.295Z,25.53
2018-01-08T15:49:34.256Z,22.10
2018-01-08T15:52:17.216Z,23.20
2018-01-08T15:54:56.631Z,25.80
2018-01-08T15:57:33.390Z,25.17
2018-01-08T16:00:43.059Z,23.73
2018-01-08T16:03:23.851Z,29.30
2018-01-08T16:06:28.454Z,22.67
2018-01-08T16:09:00.519Z,25.70
2018-01-08T16:11:40.670Z,25.20
2018-01-08T16:14:17.128Z,26.33
2018-01-08T16:16:50.182Z,25.80
2018-01-08T16:19:23.330Z,26.33
2018-01-08T16:21:57.099Z,22.53
2018-01-08T16:28:33.205Z,25.00
2018-01-08T16:31:09.648Z,23.27
2018-01-08T16:33:39.068Z,28.13
2018-01-08T16:36:17.638Z,25.70
2018-01-08T16:38:47.080Z,24.90
2018-01-08T16:41:16.915Z,24.17
2018-01-08T16:43:46.933Z,25.33
2018-01-08T16:46:14.975Z,26.73
2018-01-08T16:48:43.955Z,34.10
2018-01-08T16:51:12.379Z,25.20
2018-01-08T16:53:40.809Z,24.33
2018-01-08T16:56:09.274Z,27.85
2018-01-08T16:58:41.362Z,27.17
2018-01-08T17:01:18.521Z,28.30
2018-01-08T17:03:56.154Z,23.37
2018-01-08T17:06:24.247Z,23.90
2018-01-08T17:09:05.013Z,25.80
2018-01-08T17:11:42.289Z,26.10
2018-01-08T17:14:17.814Z,25.25
2018-01-08T17:16:50.333Z,21.70
2018-01-08T17:19:21.302Z,24.57
2018-01-08T17:21:52.479Z,19.02
2018-01-08T17:24:22.368Z,19.03
2018-01-08T17:26:51.266Z,24.67
2018-01-08T17:29:57.028Z,21.40
2018-01-08T17:32:36.037Z,26.43
2018-01-08T17:35:10.569Z,28.38
2018-01-08T17:37:42.986Z,22.27
2018-01-08T17:40:21.878Z,22.93
2018-01-08T17:43:15.052Z,20.88
2018-01-08T17:46:08.266Z,17.13
2018-01-08T17:48:41.091Z,20.47
2018-01-08T17:51:22.074Z,24.40
2018-01-08T17:53:53.394Z,22.37
2018-01-08T17:57:01.333Z,21.40
2018-01-08T17:59:50.204Z,22.33
2018-01-08T18:05:43.880Z,22.23
2018-01-08T18:08:16.215Z,20.73
2018-01-08T18:10:45.491Z,23.80
2018-01-08T18:13:45.308Z,23.17
2018-01-08T18:16:29.376Z,23.15
2018-01-08T18:19:14.183Z,23.27
2018-01-08T18:22:32.968Z,25.10
2018-01-08T18:25:08.015Z,22.30
2018-01-08T18:27:40.340Z,23.20
2018-01-08T18:30:09.448Z,22.90
2018-01-08T18:32:38.339Z,24.10
2018-01-08T18:35:08.901Z,23.58
2018-01-08T18:41:38.226Z,31.07
2018-01-08T18:44:08.020Z,28.80
2018-01-08T18:46:46.794Z,29.53
2018-01-08T18:49:15.949Z,30.13
2018-01-08T18:51:47.394Z,29.40
2018-01-08T18:54:17.522Z,40.77
2018-01-08T18:56:47.576Z,31.03
2018-01-08T18:59:35.055Z,47.60
2018-01-08T19:02:04.995Z,45.63
2018-01-08T19:04:33.777Z,25.73
2018-01-08T19:07:07.680Z,23.40
2018-01-08T19:09:36.657Z,28.17
2018-01-08T19:12:15.491Z,27.40
2018-01-08T19:14:44.170Z,24.17
2018-01-08T19:17:14.162Z,24.55
2018-01-08T19:19:49.771Z,24.97
2018-01-08T19:22:18.554Z,23.23
2018-01-08T19:24:47.249Z,26.00
2018-01-08T19:27:15.817Z,27.23
2018-01-08T19:30:05.724Z,25.27
2018-01-08T19:32:36.469Z,22.83
2018-01-08T19:35:06.510Z,25.67
2018-01-08T19:37:36.347Z,26.47
2018-01-08T19:40:05.349Z,30.87
2018-01-08T19:42:58.214Z,24.40
2018-01-08T19:45:28.369Z,28.40
2018-01-08T19:48:00.083Z,24.83
2018-01-08T19:50:29.553Z,23.70
2018-01-08T19:53:00.500Z,22.13
2018-01-08T19:55:37.836Z,23.70
2018-01-08T19:58:19.680Z,21.70
2018-01-08T20:00:50.346Z,21.07
2018-01-08T20:03:24.191Z,23.33
2018-01-08T20:05:55.480Z,20.27
2018-01-08T20:08:25.236Z,20.17
2018-01-08T20:10:56.376Z,21.70
2018-01-08T20:13:27.793Z,21.43
2018-01-08T20:15:57.620Z,28.57
2018-01-08T20:18:32.724Z,25.63
2018-01-08T20:21:28.612Z,21.33
2018-01-08T20:24:03.218Z,21.90
2018-01-08T20:29:04.992Z,21.23
2018-01-08T20:31:36.838Z,18.33
2018-01-08T20:34:08.737Z,20.03
2018-01-08T20:36:38.406Z,19.33
2018-01-08T20:39:10.747Z,19.57
2018-01-08T20:41:53.664Z,23.43
2018-01-08T20:44:27.080Z,22.63
2018-01-08T20:46:58.025Z,21.63
2018-01-08T20:49:27.434Z,20.00
2018-01-08T20:51:56.961Z,20.80
2018-01-08T20:54:26.354Z,16.43
2018-01-08T20:56:55.959Z,23.67
2018-01-08T20:59:30.493Z,19.73
2018-01-08T21:02:02.882Z,17.27
2018-01-08T21:04:32.009Z,19.50
2018-01-08T21:07:07.012Z,20.10
2018-01-08T21:10:04.840Z,20.30
2018-01-08T21:12:36.365Z,20.13
2018-01-08T21:15:06.345Z,19.53
2018-01-08T21:17:37.254Z,17.23
2018-01-08T21:20:06.070Z,17.70
2018-01-08T21:22:36.195Z,20.10
2018-01-08T21:25:06.387Z,22.63
2018-01-08T21:27:34.938Z,22.27
2018-01-08T21:30:06.450Z,21.07
2018-01-08T21:32:36.081Z,23.37
2018-01-08T21:35:05.744Z,22.37
2018-01-08T21:37:33.710Z,22.97
2018-01-08T21:40:02.011Z,23.70
2018-01-08T21:42:31.933Z,26.83
2018-01-08T21:45:05.058Z,24.33
2018-01-08T21:47:34.655Z,23.67
2018-01-08T21:50:05.610Z,25.00
2018-01-08T21:56:36.936Z,23.67
2018-01-08T22:02:28.927Z,25.03
2018-01-08T22:04:59.380Z,26.97
2018-01-08T22:10:28.216Z,25.00
2018-01-08T22:15:57.361Z,28.73
2018-01-08T22:18:26.237Z,23.27
2018-01-08T22:20:58.084Z,24.90
2018-01-08T22:23:33.366Z,22.10
2018-01-08T22:26:06.865Z,21.13
2018-01-08T22:28:35.201Z,23.03
2018-01-08T22:31:03.169Z,23.37
2018-01-08T22:33:32.504Z,21.57
2018-01-08T22:36:01.757Z,20.20
2018-01-08T22:38:31.156Z,20.50
2018-01-08T22:41:00.050Z,23.97
2018-01-08T22:43:28.865Z,23.13
2018-01-08T22:45:58.150Z,22.70
2018-01-08T22:48:38.793Z,23.93
2018-01-08T22:51:17.971Z,21.53
2018-01-08T22:53:50.447Z,21.97
2018-01-08T22:56:18.520Z,20.10
2018-01-08T22:58:46.460Z,20.93
2018-01-08T23:01:29.666Z,21.30
2018-01-08T23:03:57.877Z,20.17
2018-01-08T23:06:30.187Z,20.03
2018-01-08T23:08:58.314Z,19.23
2018-01-08T23:11:27.809Z,20.47
2018-01-08T23:13:56.213Z,18.17
2018-01-08T23:16:33.374Z,19.80
2018-01-08T23:19:40.408Z,20.07
2018-01-08T23:25:31.118Z,18.80
2018-01-08T23:28:03.058Z,19.90
2018-01-08T23:30:37.740Z,21.43
2018-01-08T23:33:08.143Z,19.97
2018-01-08T23:35:36.874Z,21.77
2018-01-08T23:38:07.753Z,19.03
2018-01-08T23:40:36.529Z,18.20
2018-01-08T23:43:06.165Z,20.40
2018-01-08T23:45:34.292Z,19.63
2018-01-08T23:48:02.771Z,20.53
2018-01-08T23:50:31.367Z,22.23
2018-01-08T23:52:59.295Z,21.67
2018-01-08T23:55:28.896Z,21.07
2018-01-08T23:58:15.936Z,22.23
